createdAt,value
2022-09-17T00:02:05.322Z,8.60
2022-09-17T00:04:37.281Z,8.40
2022-09-17T00:07:07.631Z,8.50
2022-09-17T00:09:37.777Z,9.60
2022-09-17T00:12:10.056Z,8.43
2022-09-17T00:14:40.693Z,9.63
2022-09-17T00:17:11.320Z,10.77
2022-09-17T00:19:42.268Z,8.00
2022-09-17T00:22:14.458Z,8.90
2022-09-17T00:24:44.722Z,8.60
2022-09-17T00:27:15.730Z,8.80
2022-09-17T00:29:43.033Z,8.27
2022-09-17T00:32:14.356Z,8.68
2022-09-17T00:34:43.686Z,8.25
2022-09-17T00:37:13.564Z,8.68
2022-09-17T00:39:43.550Z,8.18
2022-09-17T00:42:29.383Z,7.75
2022-09-17T00:44:58.416Z,8.95
2022-09-17T00:47:46.493Z,9.32
2022-09-17T00:50:49.886Z,9.52
2022-09-17T00:53:33.294Z,10.40
2022-09-17T00:56:14.834Z,10.00
2022-09-17T00:58:46.380Z,11.05
2022-09-17T01:01:17.626Z,10.88
2022-09-17T01:03:48.724Z,12.13
2022-09-17T01:06:44.116Z,12.00
2022-09-17T01:09:45.207Z,12.65
2022-09-17T01:12:52.867Z,14.57
2022-09-17T01:15:47.451Z,12.18
2022-09-17T01:18:44.180Z,7.55
2022-09-17T01:21:35.855Z,9.18
2022-09-17T01:24:30.544Z,9.63
2022-09-17T01:27:31.207Z,8.55
2022-09-17T01:30:36.121Z,8.32
2022-09-17T01:34:05.292Z,8.65
2022-09-17T01:37:20.864Z,7.70
2022-09-17T01:40:30.619Z,7.47
2022-09-17T01:43:28.786Z,6.93
2022-09-17T01:46:20.787Z,6.72
2022-09-17T01:48:56.055Z,5.18
2022-09-17T01:51:30.017Z,4.22
2022-09-17T01:54:26.846Z,3.85
2022-09-17T01:57:04.799Z,3.10
2022-09-17T01:59:54.092Z,3.58
2022-09-17T02:02:41.535Z,3.08
2022-09-17T02:05:30.368Z,2.13
2022-09-17T02:08:21.296Z,2.10
2022-09-17T02:10:56.944Z,1.77
2022-09-17T02:13:41.599Z,1.75
2022-09-17T02:16:23.000Z,1.70
2022-09-17T02:19:18.049Z,2.20
2022-09-17T02:21:57.293Z,2.47
2022-09-17T02:24:34.653Z,2.40
2022-09-17T02:27:31.172Z,1.90
2022-09-17T02:30:01.064Z,2.05
2022-09-17T02:32:31.161Z,2.20
2022-09-17T02:35:03.552Z,1.90
2022-09-17T02:37:33.589Z,2.25
2022-09-17T02:40:12.299Z,2.10
2022-09-17T02:43:20.987Z,1.70
2022-09-17T02:46:06.554Z,1.95
2022-09-17T02:49:03.632Z,1.80
2022-09-17T02:52:06.645Z,2.05
2022-09-17T02:55:14.045Z,2.00
2022-09-17T02:58:17.889Z,1.80
2022-09-17T03:00:51.821Z,2.00
2022-09-17T03:03:42.069Z,2.10
2022-09-17T03:06:12.755Z,2.20
2022-09-17T03:08:46.312Z,1.90
2022-09-17T03:11:17.362Z,1.70
2022-09-17T03:13:48.081Z,1.67
2022-09-17T03:16:19.038Z,1.88
2022-09-17T03:18:49.581Z,2.10
2022-09-17T03:21:18.492Z,2.00
2022-09-17T03:23:50.071Z,1.55
2022-09-17T03:26:22.607Z,2.28
2022-09-17T03:28:55.361Z,1.88
2022-09-17T03:31:26.015Z,1.80
2022-09-17T03:34:01.035Z,1.80
2022-09-17T03:36:33.526Z,2.17
2022-09-17T03:39:05.192Z,2.65
2022-09-17T03:41:34.582Z,2.00
2022-09-17T03:44:04.855Z,2.15
2022-09-17T03:46:36.522Z,2.22
2022-09-17T03:49:09.171Z,2.10
2022-09-17T03:51:40.412Z,2.45
2022-09-17T03:54:12.128Z,2.28
2022-09-17T03:56:46.569Z,2.60
2022-09-17T04:01:44.484Z,3.03
2022-09-17T04:04:14.012Z,2.35
2022-09-17T04:06:45.134Z,2.67
2022-09-17T04:09:14.449Z,2.67
2022-09-17T04:11:44.012Z,3.00
2022-09-17T04:14:13.544Z,2.90
2022-09-17T04:16:47.945Z,3.22
2022-09-17T04:19:15.128Z,3.20
2022-09-17T04:21:44.948Z,2.90
2022-09-17T04:24:16.233Z,2.78
2022-09-17T04:26:45.892Z,2.85
2022-09-17T04:29:14.247Z,2.78
2022-09-17T04:31:44.751Z,2.92
2022-09-17T04:34:14.163Z,2.50
2022-09-17T04:36:46.710Z,2.50
2022-09-17T04:39:17.719Z,2.47
2022-09-17T04:41:45.474Z,2.67
2022-09-17T04:44:13.824Z,3.60
2022-09-17T04:46:44.488Z,2.90
2022-09-17T04:49:14.672Z,3.83
2022-09-17T04:51:43.691Z,2.50
2022-09-17T04:54:13.639Z,3.00
2022-09-17T04:56:43.964Z,3.08
2022-09-17T04:59:13.674Z,3.50
2022-09-17T05:01:43.920Z,3.05
2022-09-17T05:04:11.272Z,2.95
2022-09-17T05:06:39.597Z,3.42
2022-09-17T05:09:09.892Z,3.15
2022-09-17T05:11:42.141Z,4.47
2022-09-17T05:14:10.301Z,4.20
2022-09-17T05:16:43.866Z,4.03
2022-09-17T05:21:40.397Z,4.18
2022-09-17T05:24:09.363Z,4.30
2022-09-17T05:26:38.755Z,5.10
2022-09-17T05:29:08.718Z,5.03
2022-09-17T05:31:36.696Z,5.22
2022-09-17T05:34:03.956Z,5.82
2022-09-17T05:36:53.247Z,6.05
2022-09-17T05:39:28.432Z,5.70
2022-09-17T05:42:05.242Z,6.05
2022-09-17T05:44:39.051Z,6.20
2022-09-17T05:47:09.540Z,6.65
2022-09-17T05:49:37.901Z,6.75
2022-09-17T05:52:09.300Z,6.20
2022-09-17T05:54:38.929Z,4.90
2022-09-17T05:57:10.836Z,6.72
2022-09-17T05:59:39.969Z,6.43
2022-09-17T06:02:08.850Z,6.55
2022-09-17T06:04:38.894Z,6.45
2022-09-17T06:07:11.249Z,6.40
2022-09-17T06:09:39.372Z,6.80
2022-09-17T06:12:13.322Z,7.10
2022-09-17T06:14:43.709Z,4.35
2022-09-17T06:17:13.632Z,6.28
2022-09-17T06:19:43.909Z,6.18
2022-09-17T06:22:13.801Z,6.55
2022-09-17T06:24:43.856Z,5.53
2022-09-17T06:27:14.032Z,6.47
2022-09-17T06:29:43.728Z,6.80
2022-09-17T06:32:14.089Z,7.43
2022-09-17T06:34:44.386Z,6.60
2022-09-17T06:37:15.580Z,7.45
2022-09-17T06:39:46.539Z,8.13
2022-09-17T06:42:18.644Z,7.30
2022-09-17T06:44:49.541Z,8.15
2022-09-17T06:47:18.144Z,8.20
2022-09-17T06:49:45.473Z,7.40
2022-09-17T06:52:14.958Z,7.70
2022-09-17T06:54:44.527Z,8.90
2022-09-17T06:57:14.700Z,7.95
2022-09-17T06:59:45.130Z,8.13
2022-09-17T07:02:15.815Z,7.30
2022-09-17T07:04:45.529Z,7.25
2022-09-17T07:07:14.855Z,7.22
2022-09-17T07:09:45.068Z,6.30
2022-09-17T07:12:12.425Z,6.53
2022-09-17T07:14:47.467Z,5.88
2022-09-17T07:17:16.835Z,5.30
2022-09-17T07:19:48.712Z,5.30
2022-09-17T07:22:18.875Z,5.47
2022-09-17T07:24:52.352Z,4.93
2022-09-17T07:27:24.831Z,4.93
2022-09-17T07:29:58.616Z,5.05
2022-09-17T07:32:32.245Z,5.00
2022-09-17T07:35:00.705Z,4.50
2022-09-17T07:37:32.933Z,5.22
2022-09-17T07:40:04.164Z,5.40
2022-09-17T07:42:33.877Z,5.70
2022-09-17T07:45:06.520Z,5.75
2022-09-17T07:47:48.158Z,5.50
2022-09-17T07:50:18.559Z,5.13
2022-09-17T07:52:48.376Z,5.13
2022-09-17T07:55:20.941Z,5.85
2022-09-17T07:57:53.242Z,5.57
2022-09-17T08:00:23.120Z,6.47
2022-09-17T08:03:03.337Z,6.05
2022-09-17T08:05:33.898Z,5.85
2022-09-17T08:08:06.575Z,5.93
2022-09-17T08:10:39.327Z,6.07
2022-09-17T08:13:08.432Z,6.35
2022-09-17T08:15:36.890Z,6.15
2022-09-17T08:18:06.504Z,6.10
2022-09-17T08:20:37.784Z,6.50
2022-09-17T08:23:05.629Z,6.22
2022-09-17T08:25:36.085Z,5.32
2022-09-17T08:28:11.422Z,6.28
2022-09-17T08:30:43.461Z,4.82
2022-09-17T08:33:14.083Z,5.60
2022-09-17T08:35:42.740Z,4.45
2022-09-17T08:38:14.157Z,5.57
2022-09-17T08:41:10.152Z,3.88
2022-09-17T08:44:01.667Z,4.10
2022-09-17T08:46:34.210Z,4.13
2022-09-17T08:49:13.486Z,3.63
2022-09-17T08:52:09.365Z,3.92
2022-09-17T08:55:17.343Z,3.85
2022-09-17T08:58:34.171Z,4.03
2022-09-17T09:01:27.635Z,3.35
2022-09-17T09:04:18.297Z,2.97
2022-09-17T09:06:58.165Z,3.42
2022-09-17T09:09:32.126Z,3.55
2022-09-17T09:12:22.455Z,3.03
2022-09-17T09:15:11.465Z,4.13
2022-09-17T09:17:50.248Z,3.85
2022-09-17T09:21:05.236Z,4.25
2022-09-17T09:24:07.586Z,3.35
2022-09-17T09:26:58.641Z,3.00
2022-09-17T09:29:51.663Z,3.60
2022-09-17T09:32:47.420Z,3.13
2022-09-17T09:35:34.026Z,3.17
2022-09-17T09:38:47.104Z,3.10
2022-09-17T09:41:22.205Z,3.35
2022-09-17T09:44:08.468Z,3.28
2022-09-17T09:47:15.112Z,3.42
2022-09-17T09:50:11.268Z,3.30
2022-09-17T09:53:17.587Z,3.33
2022-09-17T09:56:17.189Z,3.50
2022-09-17T09:58:46.081Z,4.30
2022-09-17T10:01:45.807Z,3.58
2022-09-17T10:04:22.669Z,3.70
2022-09-17T10:07:05.511Z,3.00
2022-09-17T10:09:39.524Z,3.28
2022-09-17T10:12:12.299Z,2.35
2022-09-17T10:14:46.309Z,2.70
2022-09-17T10:17:32.079Z,3.10
2022-09-17T10:20:19.302Z,3.58
2022-09-17T10:22:51.028Z,3.97
2022-09-17T10:25:34.887Z,3.50
2022-09-17T10:28:19.809Z,3.13
2022-09-17T10:31:12.391Z,4.03
2022-09-17T10:33:59.206Z,4.72
2022-09-17T10:36:59.580Z,3.72
2022-09-17T10:39:37.281Z,5.75
2022-09-17T10:42:19.357Z,5.60
2022-09-17T10:45:07.305Z,4.05
2022-09-17T10:47:47.609Z,5.68
2022-09-17T10:50:21.792Z,5.40
2022-09-17T10:53:15.761Z,6.70
2022-09-17T10:56:09.294Z,8.32
2022-09-17T10:59:05.851Z,9.82
2022-09-17T11:02:17.327Z,9.90
2022-09-17T11:05:54.561Z,4.72
2022-09-17T11:11:20.109Z,4.53
2022-09-17T11:14:13.852Z,4.03
2022-09-17T11:17:32.564Z,5.22
2022-09-17T11:20:46.162Z,6.68
2022-09-17T11:23:37.151Z,3.95
2022-09-17T11:26:17.408Z,3.50
2022-09-17T11:29:11.737Z,4.43
2022-09-17T11:32:14.802Z,4.43
2022-09-17T11:35:05.596Z,7.05
2022-09-17T11:38:12.329Z,5.25
2022-09-17T11:41:09.919Z,5.32
2022-09-17T11:44:04.660Z,7.45
2022-09-17T11:46:59.740Z,7.28
2022-09-17T11:49:47.258Z,5.05
2022-09-17T11:52:28.570Z,5.07
2022-09-17T11:55:34.939Z,5.20
2022-09-17T11:58:27.493Z,5.13
2022-09-17T12:01:06.739Z,5.13
2022-09-17T12:04:04.338Z,5.30
2022-09-17T12:06:44.889Z,6.22
2022-09-17T12:09:29.133Z,5.05
2022-09-17T12:12:21.738Z,3.78
2022-09-17T12:15:06.749Z,3.22
2022-09-17T12:18:14.366Z,3.80
2022-09-17T12:20:48.258Z,5.57
2022-09-17T12:23:37.160Z,5.35
2022-09-17T12:26:33.299Z,4.93
2022-09-17T12:29:13.444Z,3.70
2022-09-17T12:32:25.538Z,4.57
2022-09-17T12:35:23.100Z,4.53
2022-09-17T12:38:22.750Z,4.80
2022-09-17T12:40:54.066Z,5.20
2022-09-17T12:43:51.968Z,4.57
2022-09-17T12:47:00.989Z,4.28
2022-09-17T12:49:53.113Z,4.53
2022-09-17T12:52:35.796Z,4.65
2022-09-17T12:55:37.996Z,4.50
2022-09-17T12:58:44.303Z,7.57
2022-09-17T13:01:23.316Z,6.10
2022-09-17T13:04:07.653Z,11.85
2022-09-17T13:09:50.338Z,4.93
2022-09-17T13:12:29.965Z,5.03
2022-09-17T13:18:23.591Z,3.90
2022-09-17T13:21:34.649Z,4.00
2022-09-17T13:24:17.214Z,4.20
2022-09-17T13:26:49.961Z,3.63
2022-09-17T13:29:57.594Z,4.57
2022-09-17T13:32:42.506Z,3.38
2022-09-17T13:35:16.888Z,3.75
2022-09-17T13:38:00.878Z,4.95
2022-09-17T13:40:43.159Z,5.50
2022-09-17T13:43:24.623Z,3.97
2022-09-17T13:46:15.944Z,3.70
2022-09-17T13:48:49.738Z,3.75
2022-09-17T13:51:49.877Z,3.58
2022-09-17T13:54:26.385Z,4.00
2022-09-17T13:57:15.395Z,3.50
2022-09-17T14:00:00.689Z,3.40
2022-09-17T14:02:34.425Z,3.80
2022-09-17T14:05:31.268Z,5.10
2022-09-17T14:09:01.292Z,4.70
2022-09-17T14:11:34.390Z,4.40
2022-09-17T14:14:10.206Z,4.28
2022-09-17T14:16:53.029Z,4.30
2022-09-17T14:19:51.872Z,5.47
2022-09-17T14:25:24.162Z,11.38
2022-09-17T14:28:07.797Z,7.40
2022-09-17T14:30:37.229Z,6.55
2022-09-17T14:33:23.040Z,7.68
2022-09-17T14:36:00.454Z,6.40
2022-09-17T14:38:55.861Z,12.95
2022-09-17T14:41:37.331Z,6.95
2022-09-17T14:44:28.526Z,6.13
2022-09-17T14:47:04.386Z,7.30
2022-09-17T14:49:39.912Z,6.20
2022-09-17T14:52:33.635Z,5.40
2022-09-17T14:55:19.755Z,4.90
2022-09-17T14:58:07.688Z,4.05
2022-09-17T15:00:43.564Z,4.90
2022-09-17T15:03:24.800Z,4.85
2022-09-17T15:05:55.393Z,4.10
2022-09-17T15:08:29.517Z,4.00
2022-09-17T15:11:11.072Z,4.45
2022-09-17T15:14:03.202Z,3.65
2022-09-17T15:16:34.331Z,3.50
2022-09-17T15:19:08.819Z,4.50
2022-09-17T15:21:45.125Z,3.63
2022-09-17T15:24:33.949Z,4.28
2022-09-17T15:27:16.031Z,4.47
2022-09-17T15:29:48.076Z,3.13
2022-09-17T15:32:19.544Z,5.28
2022-09-17T15:35:22.333Z,3.88
2022-09-17T15:40:45.523Z,3.92
2022-09-17T15:43:33.175Z,3.90
2022-09-17T15:46:30.038Z,3.60
2022-09-17T15:52:36.119Z,3.30
2022-09-17T15:55:08.958Z,3.60
2022-09-17T15:57:40.628Z,4.30
2022-09-17T16:00:18.023Z,3.85
2022-09-17T16:02:49.875Z,3.70
2022-09-17T16:05:21.264Z,3.50
2022-09-17T16:07:50.999Z,3.50
2022-09-17T16:10:22.139Z,4.15
2022-09-17T16:12:53.708Z,7.95
2022-09-17T16:15:24.327Z,4.25
2022-09-17T16:17:52.034Z,4.00
2022-09-17T16:20:43.593Z,3.42
2022-09-17T16:23:13.156Z,3.58
2022-09-17T16:25:42.400Z,3.78
2022-09-17T16:28:21.575Z,3.53
2022-09-17T16:30:52.036Z,3.70
2022-09-17T16:33:23.373Z,3.40
2022-09-17T16:35:54.349Z,3.42
2022-09-17T16:38:22.589Z,3.28
2022-09-17T16:40:52.735Z,3.22
2022-09-17T16:43:22.252Z,3.42
2022-09-17T16:46:05.155Z,3.00
2022-09-17T16:48:35.277Z,3.38
2022-09-17T16:51:19.711Z,3.25
2022-09-17T16:53:50.205Z,4.13
2022-09-17T16:56:22.937Z,3.47
2022-09-17T16:58:56.181Z,3.38
2022-09-17T17:01:26.795Z,3.75
2022-09-17T17:04:01.959Z,3.30
2022-09-17T17:06:30.499Z,3.80
2022-09-17T17:09:01.084Z,4.00
2022-09-17T17:11:32.646Z,3.75
2022-09-17T17:14:04.848Z,4.05
2022-09-17T17:16:39.903Z,3.85
2022-09-17T17:19:24.042Z,4.30
2022-09-17T17:21:58.905Z,4.15
2022-09-17T17:24:34.108Z,3.97
2022-09-17T17:27:05.344Z,3.58
2022-09-17T17:29:39.965Z,3.80
2022-09-17T17:32:30.154Z,3.50
2022-09-17T17:35:02.030Z,4.15
2022-09-17T17:37:33.556Z,4.05
2022-09-17T17:40:11.124Z,4.25
2022-09-17T17:42:47.626Z,3.75
2022-09-17T17:45:19.769Z,3.95
2022-09-17T17:47:48.919Z,3.97
2022-09-17T17:50:20.697Z,3.53
2022-09-17T17:52:58.965Z,3.28
2022-09-17T17:55:30.672Z,3.10
2022-09-17T17:58:02.921Z,2.35
2022-09-17T18:00:37.916Z,3.25
2022-09-17T18:03:06.257Z,2.15
2022-09-17T18:08:30.936Z,2.45
2022-09-17T18:13:38.045Z,2.90
2022-09-17T18:16:12.566Z,3.28
2022-09-17T18:18:46.072Z,2.80
2022-09-17T18:21:43.848Z,2.05
2022-09-17T18:24:14.069Z,2.75
2022-09-17T18:27:08.083Z,2.92
2022-09-17T18:29:40.044Z,1.95
2022-09-17T18:32:13.744Z,2.42
2022-09-17T18:34:45.349Z,1.50
2022-09-17T18:37:14.674Z,1.80
2022-09-17T18:40:02.825Z,1.38
2022-09-17T18:42:34.499Z,1.30
2022-09-17T18:45:05.663Z,1.60
2022-09-17T18:47:33.732Z,1.65
2022-09-17T18:50:03.811Z,1.38
2022-09-17T18:52:33.737Z,1.67
2022-09-17T18:55:05.709Z,3.20
2022-09-17T18:57:35.726Z,1.75
2022-09-17T19:00:10.941Z,2.10
2022-09-17T19:02:44.966Z,2.05
2022-09-17T19:05:13.586Z,1.98
2022-09-17T19:07:48.937Z,1.90
2022-09-17T19:10:16.281Z,2.08
2022-09-17T19:12:47.134Z,2.13
2022-09-17T19:15:17.656Z,2.60
2022-09-17T19:17:48.507Z,2.15
2022-09-17T19:20:23.036Z,2.28
2022-09-17T19:22:54.240Z,2.13
2022-09-17T19:25:24.683Z,2.60
2022-09-17T19:28:01.048Z,2.00
2022-09-17T19:30:30.927Z,2.40
2022-09-17T19:33:05.777Z,2.20
2022-09-17T19:35:37.008Z,2.17
2022-09-17T19:38:12.590Z,2.08
2022-09-17T19:40:45.388Z,2.25
2022-09-17T19:43:17.396Z,2.22
2022-09-17T19:45:50.569Z,2.55
2022-09-17T19:48:25.062Z,2.30
2022-09-17T19:50:57.420Z,1.65
2022-09-17T19:53:28.272Z,2.10
2022-09-17T19:56:03.936Z,2.63
2022-09-17T19:58:33.676Z,2.10
2022-09-17T20:01:04.514Z,2.40
2022-09-17T20:03:35.952Z,2.58
2022-09-17T20:06:08.361Z,2.20
2022-09-17T20:08:46.642Z,2.30
2022-09-17T20:11:16.388Z,2.10
2022-09-17T20:13:46.735Z,2.30
2022-09-17T20:16:43.040Z,1.83
2022-09-17T20:19:15.934Z,1.95
2022-09-17T20:21:47.404Z,1.88
2022-09-17T20:24:19.307Z,1.85
2022-09-17T20:26:53.951Z,2.28
2022-09-17T20:29:29.021Z,2.30
2022-09-17T20:32:02.934Z,2.63
2022-09-17T20:34:31.894Z,2.80
2022-09-17T20:37:13.899Z,2.97
2022-09-17T20:39:46.767Z,3.15
2022-09-17T20:42:18.112Z,3.08
2022-09-17T20:44:47.623Z,2.65
2022-09-17T20:47:18.981Z,2.55
2022-09-17T20:49:49.760Z,2.97
2022-09-17T20:52:21.147Z,2.70
2022-09-17T20:54:50.560Z,2.95
2022-09-17T20:57:21.928Z,2.40
2022-09-17T20:59:55.340Z,2.03
2022-09-17T21:02:28.717Z,1.75
2022-09-17T21:04:57.652Z,2.00
2022-09-17T21:07:24.844Z,1.90
2022-09-17T21:09:54.591Z,1.60
2022-09-17T21:12:27.715Z,1.50
2022-09-17T21:14:57.763Z,1.70
2022-09-17T21:17:28.387Z,1.45
2022-09-17T21:20:01.072Z,1.30
2022-09-17T21:22:33.680Z,1.95
2022-09-17T21:25:05.906Z,1.60
2022-09-17T21:27:37.101Z,1.77
2022-09-17T21:30:11.106Z,1.63
2022-09-17T21:32:44.335Z,1.75
2022-09-17T21:35:13.816Z,2.03
2022-09-17T21:37:43.628Z,1.88
2022-09-17T21:40:16.098Z,1.92
2022-09-17T21:42:47.644Z,2.42
2022-09-17T21:45:16.890Z,2.55
2022-09-17T21:47:48.369Z,1.70
2022-09-17T21:50:17.883Z,1.90
2022-09-17T21:52:46.977Z,1.80
2022-09-17T21:55:16.533Z,2.17
2022-09-17T21:57:46.702Z,1.95
2022-09-17T22:00:23.222Z,1.92
2022-09-17T22:02:56.535Z,1.58
2022-09-17T22:05:27.799Z,1.70
2022-09-17T22:07:58.065Z,1.45
2022-09-17T22:10:32.756Z,1.55
2022-09-17T22:13:03.265Z,1.38
2022-09-17T22:15:34.729Z,1.55
2022-09-17T22:18:04.587Z,1.80
2022-09-17T22:20:37.700Z,1.52
2022-09-17T22:23:06.911Z,1.60
2022-09-17T22:25:37.269Z,1.60
2022-09-17T22:28:20.640Z,1.73
2022-09-17T22:30:50.355Z,1.65
2022-09-17T22:33:20.744Z,1.70
2022-09-17T22:35:53.741Z,2.00
2022-09-17T22:38:23.755Z,1.80
2022-09-17T22:40:57.138Z,2.05
2022-09-17T22:43:32.991Z,1.92
2022-09-17T22:46:09.181Z,1.85
2022-09-17T22:48:39.178Z,1.98
2022-09-17T22:51:13.079Z,2.00
2022-09-17T22:53:46.935Z,1.88
2022-09-17T22:56:19.941Z,1.98
2022-09-17T22:58:52.116Z,2.30
2022-09-17T23:01:28.181Z,1.73
2022-09-17T23:03:59.979Z,2.00
2022-09-17T23:06:33.519Z,2.30
2022-09-17T23:09:05.615Z,1.50
2022-09-17T23:11:45.006Z,2.30
2022-09-17T23:14:18.909Z,1.85
2022-09-17T23:16:50.492Z,2.63
2022-09-17T23:19:23.509Z,2.13
2022-09-17T23:21:53.016Z,2.25
2022-09-17T23:24:24.393Z,1.80
2022-09-17T23:26:58.013Z,2.10
2022-09-17T23:29:29.153Z,2.33
2022-09-17T23:32:00.304Z,1.80
2022-09-17T23:34:32.055Z,2.13
2022-09-17T23:37:03.208Z,2.30
2022-09-17T23:39:35.202Z,2.35
2022-09-17T23:42:03.927Z,2.47
2022-09-17T23:44:35.641Z,2.20
2022-09-17T23:47:07.165Z,1.95
2022-09-17T23:49:37.091Z,2.08
2022-09-17T23:52:05.911Z,1.95
2022-09-17T23:54:36.187Z,2.33
2022-09-17T23:57:06.251Z,2.15
2022-09-17T23:59:34.784Z,2.20
